Brookley Field, Alabama
Current Conditions -  °F | °C
As of 4:53 PM on Monday 20 Oct 2014 (Local Time) from KBFM Reporting Station
Clear Clear  
Wind Chill: 25°   Ceiling: Unl
Heat Index: 26°   Visibility: 10mi
Dew Point: 11°   Wind: 5mph
Humidity: 42%   Direction: 30°NNE
Pressure: 29.99"   Gusts: NA
Location:  30.641°N, 88.065°W
Report Text: KBFM 202153Z 03004KT 10SM CLR 25/11 A2999 RMK AO2 SLP156 T02500111
Loading
Personal Weather Stations






























Interactive Weather Map
Tropical Storm Tracking
New forecast layout! Learn more

10-Day Weather Forecast

Advertisements
Track Severe Weather on mobile